Time;durP1;ratioP1;P1;durP2;ratioP2;P2;SDS_P1;SDS_P2;PMS_P1;PMS_P2;Temp;Humidity;BMP_temperature;BMP_pressure;BME280_temperature;BME280_humidity;BME280_pressure;Samples;Min_cycle;Max_cycle;Signal;HPM_P1;HPM_P2
2022/12/25 00:01:12;;;;;;;17.23;7.00;;;;;;;6.46;100.00;101188.59;4945214;29;20200;-72
2022/12/25 00:03:41;;;;;;;15.75;6.78;;;;;;;6.39;100.00;101184.06;4969466;28;20220;-70
2022/12/25 00:06:10;;;;;;;17.27;6.45;;;;;;;6.32;100.00;101186.59;4956357;29;20196;-71
2022/12/25 00:08:40;;;;;;;20.98;7.28;;;;;;;6.14;100.00;101179.69;4958695;28;20184;-71
2022/12/25 00:11:12;;;;;;;10.10;6.53;;;;;;;6.12;100.00;101182.53;4975259;28;20197;-72
2022/12/25 00:13:43;;;;;;;14.63;5.80;;;;;;;6.11;100.00;101188.91;4961656;28;20215;-71
2022/12/25 00:16:15;;;;;;;15.20;7.53;;;;;;;6.00;100.00;101187.38;4962547;28;20184;-71
2022/12/25 00:18:44;;;;;;;20.23;8.25;;;;;;;6.02;100.00;101185.38;4962288;28;20215;-71
2022/12/25 00:21:14;;;;;;;13.93;6.07;;;;;;;5.92;100.00;101184.69;4956326;29;20700;-71
2022/12/25 00:23:43;;;;;;;20.15;7.05;;;;;;;5.84;100.00;101183.81;4955799;29;20215;-70
2022/12/25 00:26:15;;;;;;;19.58;7.55;;;;;;;5.71;100.00;101180.75;4960614;28;20282;-70
2022/12/25 00:28:45;;;;;;;16.55;6.20;;;;;;;5.64;100.00;101183.25;4955429;28;20676;-72
2022/12/25 00:31:16;;;;;;;14.25;8.02;;;;;;;5.66;100.00;101195.47;4955523;29;20215;-72
2022/12/25 00:33:47;;;;;;;15.88;7.00;;;;;;;5.54;100.00;101193.28;4955320;28;20649;-72
2022/12/25 00:36:19;;;;;;;10.63;5.43;;;;;;;5.50;100.00;101190.06;4955827;29;20292;-70
2022/12/25 00:38:48;;;;;;;14.73;6.18;;;;;;;5.38;100.00;101195.88;4954842;28;20231;-71
2022/12/25 00:42:17;;;;;;;22.50;7.93;;;;;;;5.35;100.00;101194.38;4954870;29;20196;-70
2022/12/25 00:44:13;;;;;;;21.17;6.25;;;;;;;5.51;100.00;101196.28;4950386;28;20226;-71
2022/12/25 00:46:43;;;;;;;15.73;7.45;;;;;;;5.58;100.00;101195.47;4955637;29;20724;-73
2022/12/25 00:49:12;;;;;;;18.70;7.00;;;;;;;5.46;100.00;101203.97;4962224;28;20210;-71
2022/12/25 00:51:41;;;;;;;16.35;7.38;;;;;;;5.32;100.00;101197.38;4974080;28;20651;-71
2022/12/25 00:54:10;;;;;;;13.88;5.68;;;;;;;5.33;100.00;101204.41;4955536;29;20727;-70
2022/12/25 00:56:39;;;;;;;16.23;8.10;;;;;;;5.38;100.00;101211.97;4951847;28;20196;-72
2022/12/25 00:59:08;;;;;;;15.10;6.88;;;;;;;5.39;100.00;101219.88;4974539;28;20214;-71
2022/12/25 01:01:39;;;;;;;14.45;6.30;;;;;;;5.44;100.00;101227.44;4966996;28;20238;-70
2022/12/25 01:04:08;;;;;;;11.10;6.20;;;;;;;5.34;100.00;101227.56;4955306;28;20212;-71
2022/12/25 01:06:37;;;;;;;19.60;5.88;;;;;;;5.40;100.00;101235.00;4955290;29;20260;-73
2022/12/25 01:11:53;;;;;;;12.23;5.93;;;;;;;5.07;100.00;101235.81;4955649;29;20207;-70
2022/12/25 01:14:22;;;;;;;26.73;7.40;;;;;;;5.09;100.00;101228.44;4955123;28;20211;-72
2022/12/25 01:16:52;;;;;;;18.48;8.02;;;;;;;5.02;100.00;101233.59;4955264;29;20184;-71
2022/12/25 01:19:21;;;;;;;10.75;7.18;;;;;;;4.99;100.00;101236.59;4955133;28;20204;-71
2022/12/25 01:21:50;;;;;;;21.75;7.45;;;;;;;4.95;100.00;101237.06;4955078;29;20200;-70
2022/12/25 01:24:19;;;;;;;16.83;7.63;;;;;;;4.89;100.00;101243.06;4966658;28;20302;-71
2022/12/25 01:26:48;;;;;;;18.23;8.02;;;;;;;4.90;100.00;101250.09;4955002;29;20553;-71
2022/12/25 01:29:17;;;;;;;17.10;7.70;;;;;;;5.15;100.00;101257.31;4962571;28;20576;-71
2022/12/25 01:31:46;;;;;;;13.70;6.70;;;;;;;5.06;100.00;101260.94;4963388;28;20203;-71
2022/12/25 01:34:16;;;;;;;10.77;6.00;;;;;;;5.00;100.00;101257.06;4955100;29;20216;-70
2022/12/25 01:36:45;;;;;;;10.38;6.82;;;;;;;4.93;100.00;101260.53;4955201;29;20188;-70
2022/12/25 01:39:14;;;;;;;14.82;8.05;;;;;;;4.77;100.00;101269.28;4954913;29;20218;-71
2022/12/25 01:41:44;;;;;;;20.13;11.32;;;;;;;4.76;100.00;101260.41;4955131;29;20200;-70
2022/12/25 01:44:48;;;;;;;14.30;6.97;;;;;;;4.78;100.00;101276.34;4954751;28;20230;-70
2022/12/25 01:47:18;;;;;;;14.60;8.88;;;;;;;4.89;100.00;101275.25;4951951;29;20202;-71
2022/12/25 01:49:50;;;;;;;16.85;10.10;;;;;;;4.98;100.00;101268.94;4955189;28;20192;-71
2022/12/25 01:52:23;;;;;;;17.10;7.50;;;;;;;4.92;100.00;101275.78;4958184;28;20196;-70
2022/12/25 01:54:56;;;;;;;20.40;8.50;;;;;;;4.99;100.00;101276.81;4958436;28;20216;-71
2022/12/25 01:57:28;;;;;;;17.77;7.75;;;;;;;4.82;100.00;101273.19;4959187;28;20669;-70
2022/12/25 01:59:59;;;;;;;10.65;7.43;;;;;;;4.92;100.00;101270.41;4965854;28;20215;-69
2022/12/25 02:02:29;;;;;;;35.00;8.90;;;;;;;4.80;100.00;101274.31;4941882;29;20199;-72
2022/12/25 02:05:03;;;;;;;15.85;8.40;;;;;;;4.66;100.00;101281.09;4959905;29;20684;-71
2022/12/25 02:07:35;;;;;;;24.75;9.77;;;;;;;4.60;100.00;101291.59;4941155;29;20264;-72
2022/12/25 02:10:05;;;;;;;20.30;9.43;;;;;;;4.66;100.00;101290.97;4955254;28;20184;-70
2022/12/25 02:12:35;;;;;;;18.20;7.80;;;;;;;4.45;100.00;101283.25;4963773;28;20712;-70
2022/12/25 02:15:08;;;;;;;11.20;6.53;;;;;;;4.49;100.00;101281.09;4957984;28;20223;-71
2022/12/25 02:17:43;;;;;;;10.50;6.25;;;;;;;4.50;100.00;101280.13;4958931;29;20200;-71
2022/12/25 02:20:38;;;;;;;13.88;6.40;;;;;;;4.54;100.00;101282.34;4959290;29;20286;-71
2022/12/25 02:23:32;;;;;;;20.15;9.13;;;;;;;4.47;100.00;101291.97;4974546;28;20192;-72
2022/12/25 02:26:23;;;;;;;16.33;7.22;;;;;;;4.37;100.00;101284.00;4975080;28;20168;-70
2022/12/25 02:29:02;;;;;;;19.50;9.70;;;;;;;4.47;100.00;101291.13;4957914;29;20196;-69
2022/12/25 02:31:40;;;;;;;16.63;7.93;;;;;;;4.57;100.00;101292.75;4957940;29;20187;-71
2022/12/25 02:34:13;;;;;;;27.88;6.95;;;;;;;4.66;100.00;101297.19;4957645;29;20739;-71
2022/12/25 02:36:49;;;;;;;21.30;7.65;;;;;;;4.55;100.00;101302.75;4957760;29;20188;-71
2022/12/25 02:42:15;;;;;;;23.73;10.02;;;;;;;4.45;100.00;101303.84;4957664;29;20176;-71
2022/12/25 03:07:21;;;;;;;19.40;6.97;;;;;;;4.43;100.00;101305.81;4917057;29;20206;-70
2022/12/25 03:12:49;;;;;;;23.05;7.53;;;;;;;4.27;100.00;101301.13;4930272;29;20674;-71
2022/12/25 03:18:12;;;;;;;29.10;8.55;;;;;;;4.33;100.00;101305.91;4957214;29;20295;-71
2022/12/25 03:29:02;;;;;;;22.15;7.40;;;;;;;4.28;100.00;101306.34;4925819;29;20238;-71
2022/12/25 03:31:38;;;;;;;20.52;7.70;;;;;;;4.33;100.00;101308.56;4968880;29;20157;-70
2022/12/25 03:37:32;;;;;;;16.52;7.45;;;;;;;4.28;100.00;101324.25;4953183;29;20191;-73
2022/12/25 04:36:36;;;;;;;15.73;6.47;;;;;;;4.02;100.00;101350.09;4916335;29;20288;-72
2022/12/25 04:39:05;;;;;;;15.43;7.32;;;;;;;3.95;100.00;101352.50;4937405;29;20208;-73
2022/12/25 04:41:35;;;;;;;13.93;7.50;;;;;;;3.96;100.00;101359.56;4935630;29;20288;-73
2022/12/25 04:44:05;;;;;;;21.20;7.28;;;;;;;3.94;100.00;101366.88;4937696;28;20216;-73
2022/12/25 04:46:34;;;;;;;14.82;7.22;;;;;;;3.86;100.00;101373.00;4935693;29;20221;-73
2022/12/25 04:49:03;;;;;;;22.52;8.85;;;;;;;3.93;100.00;101367.88;4935624;29;20193;-73
2022/12/25 04:51:32;;;;;;;17.77;9.20;;;;;;;3.82;100.00;101371.59;4935687;29;20189;-73
2022/12/25 04:54:01;;;;;;;12.93;7.70;;;;;;;3.83;100.00;101370.59;4935402;29;20224;-73
2022/12/25 04:56:30;;;;;;;14.95;7.90;;;;;;;3.86;100.00;101367.63;4918793;29;20640;-73
2022/12/25 04:59:01;;;;;;;13.07;7.55;;;;;;;3.80;100.00;101367.38;4935726;29;20263;-73
2022/12/25 05:01:30;;;;;;;13.75;8.02;;;;;;;3.75;100.00;101365.13;4935167;29;20220;-73
2022/12/25 05:03:59;;;;;;;21.05;9.15;;;;;;;3.75;100.00;101362.47;4935227;29;20224;-73
2022/12/25 05:06:28;;;;;;;11.70;6.10;;;;;;;3.88;100.00;101368.31;4935147;29;20244;-73
2022/12/25 05:08:57;;;;;;;13.23;7.82;;;;;;;4.08;100.00;101362.88;4935516;29;20243;-73
2022/12/25 05:11:26;;;;;;;13.30;8.40;;;;;;;4.00;100.00;101360.94;4935053;29;20235;-74
2022/12/25 05:13:56;;;;;;;23.17;9.43;;;;;;;3.89;100.00;101361.97;4940534;29;20592;-73
2022/12/25 05:16:27;;;;;;;18.15;7.93;;;;;;;3.93;100.00;101355.31;4935339;29;20224;-72
2022/12/25 05:18:57;;;;;;;20.67;7.93;;;;;;;3.86;100.00;101351.56;4935412;29;20272;-73
2022/12/25 05:21:26;;;;;;;21.50;9.32;;;;;;;3.90;100.00;101360.16;4935197;29;20234;-73
2022/12/25 05:23:55;;;;;;;12.43;7.88;;;;;;;3.78;100.00;101367.50;4935052;29;20216;-73
2022/12/25 05:26:26;;;;;;;18.25;7.55;;;;;;;3.83;100.00;101357.19;4937125;29;20211;-72
2022/12/25 05:28:56;;;;;;;15.15;7.32;;;;;;;3.69;100.00;101359.50;4937807;29;20307;-73
2022/12/25 05:31:26;;;;;;;14.65;7.00;;;;;;;3.78;100.00;101353.28;4941854;29;20304;-73
2022/12/25 05:33:56;;;;;;;11.10;6.60;;;;;;;3.76;100.00;101353.44;4938932;29;20224;-73
2022/12/25 05:36:25;;;;;;;17.75;8.50;;;;;;;3.93;100.00;101358.00;4949181;29;20197;-72
2022/12/25 05:38:54;;;;;;;22.23;8.15;;;;;;;3.82;100.00;101360.91;4932636;29;20654;-73
2022/12/25 05:41:23;;;;;;;11.48;6.50;;;;;;;3.82;100.00;101363.56;4955743;29;20215;-73
2022/12/25 05:44:00;;;;;;;14.20;7.70;;;;;;;3.62;100.00;101353.06;4932453;29;20235;-74
2022/12/25 05:46:30;;;;;;;17.33;7.53;;;;;;;3.57;100.00;101361.53;4939387;29;20196;-73
2022/12/25 05:48:59;;;;;;;22.95;8.68;;;;;;;3.60;100.00;101350.53;4938840;29;20634;-73
2022/12/25 05:51:29;;;;;;;20.38;8.85;;;;;;;3.53;100.00;101349.44;4949731;29;20211;-73
2022/12/25 05:53:59;;;;;;;23.08;7.90;;;;;;;3.48;100.00;101352.56;4940414;29;20231;-73
2022/12/25 05:56:28;;;;;;;19.30;8.95;;;;;;;3.54;100.00;101348.44;4939173;29;20227;-73
2022/12/25 05:58:57;;;;;;;16.92;7.22;;;;;;;3.51;100.00;101351.41;4939089;29;20203;-74
2022/12/25 06:01:28;;;;;;;14.68;8.43;;;;;;;3.52;100.00;101342.41;4944403;29;20219;-73
2022/12/25 06:03:59;;;;;;;15.60;6.10;;;;;;;3.55;100.00;101339.41;4938809;29;20303;-73
2022/12/25 06:06:28;;;;;;;14.15;5.90;;;;;;;3.50;100.00;101333.66;4943016;29;20197;-73
2022/12/25 06:08:57;;;;;;;14.57;7.18;;;;;;;3.66;100.00;101328.53;4951142;28;20692;-74
2022/12/25 06:11:26;;;;;;;19.55;7.95;;;;;;;3.52;100.00;101325.50;4940203;29;20199;-73
2022/12/25 06:13:55;;;;;;;11.20;7.05;;;;;;;3.49;100.00;101327.47;4938932;29;20265;-73
2022/12/25 06:16:24;;;;;;;17.00;8.25;;;;;;;3.74;100.00;101314.41;4939220;29;20566;-73
2022/12/25 06:18:54;;;;;;;17.77;6.60;;;;;;;3.65;100.00;101332.19;4939448;29;20200;-73
2022/12/25 06:21:24;;;;;;;19.30;8.77;;;;;;;3.42;100.00;101318.34;4939345;29;20209;-73
2022/12/25 06:23:53;;;;;;;16.25;7.90;;;;;;;3.36;100.00;101321.59;4940217;29;20212;-73
2022/12/25 06:26:22;;;;;;;21.60;6.53;;;;;;;3.30;100.00;101326.69;4947933;28;20189;-72
2022/12/25 06:28:52;;;;;;;18.20;7.30;;;;;;;3.33;100.00;101335.28;4949618;29;20232;-73
2022/12/25 06:31:23;;;;;;;9.45;6.90;;;;;;;3.35;100.00;101335.09;4940449;29;20184;-73
2022/12/25 06:33:52;;;;;;;12.48;6.32;;;;;;;3.47;100.00;101333.97;4943341;29;20585;-73
2022/12/25 06:36:25;;;;;;;17.52;7.20;;;;;;;3.57;100.00;101333.94;4953228;29;20220;-73
2022/12/25 06:38:54;;;;;;;25.67;7.18;;;;;;;3.46;100.00;101319.75;4947844;29;20204;-73
2022/12/25 06:41:26;;;;;;;20.92;6.32;;;;;;;3.41;100.00;101329.19;4943159;29;20303;-72
2022/12/25 06:43:57;;;;;;;15.00;8.30;;;;;;;3.35;100.00;101325.25;4938615;29;20280;-73
2022/12/25 06:46:28;;;;;;;26.73;9.10;;;;;;;3.57;100.00;101333.94;4942468;29;20197;-73
2022/12/25 06:48:59;;;;;;;14.10;7.10;;;;;;;3.51;100.00;101327.31;4938700;29;20720;-73
2022/12/25 06:51:31;;;;;;;14.38;6.10;;;;;;;3.52;100.00;101326.34;4938432;29;20602;-73
2022/12/25 06:54:02;;;;;;;15.43;8.48;;;;;;;3.47;100.00;101336.63;4940626;29;20754;-72
2022/12/25 06:56:33;;;;;;;12.57;7.68;;;;;;;3.58;100.00;101347.19;4925646;29;20192;-73
2022/12/25 06:59:04;;;;;;;14.25;7.63;;;;;;;3.51;100.00;101351.41;4941087;29;20252;-74
2022/12/25 07:01:36;;;;;;;12.27;6.90;;;;;;;3.55;100.00;101347.44;4926944;29;20612;-73
2022/12/25 07:04:11;;;;;;;15.70;6.72;;;;;;;3.41;100.00;101367.50;4937616;29;20221;-72
2022/12/25 07:06:42;;;;;;;15.65;6.95;;;;;;;3.37;100.00;101359.91;4937776;29;20224;-74
2022/12/25 07:09:11;;;;;;;16.50;7.57;;;;;;;3.43;100.00;101356.66;4938086;29;20207;-73
2022/12/25 07:11:40;;;;;;;18.20;6.68;;;;;;;3.53;100.00;101360.16;4938692;29;20545;-73
2022/12/25 07:14:17;;;;;;;13.75;9.05;;;;;;;3.49;100.00;101364.06;4937557;29;20600;-74
2022/12/25 07:16:52;;;;;;;16.13;7.63;;;;;;;3.43;100.00;101376.22;4930541;29;20203;-73
2022/12/25 07:19:21;;;;;;;15.93;7.80;;;;;;;3.53;100.00;101375.34;4938229;29;20212;-72
2022/12/25 07:21:51;;;;;;;14.32;8.05;;;;;;;3.53;100.00;101389.59;4946255;28;20215;-72
2022/12/25 07:24:20;;;;;;;12.05;6.72;;;;;;;3.43;100.00;101402.13;4934793;29;20217;-73
2022/12/25 07:26:51;;;;;;;13.90;7.60;;;;;;;3.64;100.00;101393.91;4939118;29;20278;-73
2022/12/25 07:29:20;;;;;;;16.10;8.65;;;;;;;3.50;100.00;101400.56;4936551;29;20220;-72
2022/12/25 07:31:49;;;;;;;16.58;8.48;;;;;;;3.59;100.00;101402.38;4937987;29;20193;-72
2022/12/25 07:34:18;;;;;;;13.95;8.18;;;;;;;3.64;100.00;101404.59;4936050;29;20240;-72
2022/12/25 07:36:47;;;;;;;11.70;7.50;;;;;;;3.58;100.00;101414.09;4941297;29;20669;-72
2022/12/25 07:39:18;;;;;;;21.33;8.38;;;;;;;3.62;100.00;101410.13;4938392;29;20280;-71
2022/12/25 07:41:47;;;;;;;11.35;8.05;;;;;;;3.65;100.00;101396.44;4934022;29;20259;-73
2022/12/25 07:44:16;;;;;;;14.93;8.80;;;;;;;3.56;100.00;101402.66;4950973;28;20303;-73
2022/12/25 07:46:45;;;;;;;23.02;7.43;;;;;;;3.47;100.00;101390.16;4937498;29;20209;-73
2022/12/25 07:49:14;;;;;;;16.60;7.15;;;;;;;3.39;100.00;101390.00;4939692;29;20193;-73
2022/12/25 07:51:44;;;;;;;18.23;8.60;;;;;;;3.42;100.00;101389.75;4947730;29;20196;-73
2022/12/25 07:54:13;;;;;;;16.27;8.18;;;;;;;3.58;100.00;101389.16;4943626;29;20226;-73
2022/12/25 07:56:43;;;;;;;21.23;8.55;;;;;;;3.65;100.00;101385.72;4936308;29;20637;-72
2022/12/25 07:59:12;;;;;;;15.13;7.47;;;;;;;3.61;100.00;101386.16;4936425;29;20221;-73
2022/12/25 08:01:41;;;;;;;11.40;7.38;;;;;;;3.76;100.00;101393.59;4935000;29;20209;-74
2022/12/25 08:04:11;;;;;;;15.13;7.75;;;;;;;3.74;100.00;101392.03;4943795;28;20224;-73
2022/12/25 08:06:40;;;;;;;14.15;7.03;;;;;;;3.70;100.00;101390.66;4936457;29;20201;-74
2022/12/25 08:09:11;;;;;;;15.20;7.95;;;;;;;3.67;100.00;101399.81;4936568;29;20192;-73
2022/12/25 08:11:46;;;;;;;14.88;7.80;;;;;;;3.68;100.00;101401.50;4940959;29;20193;-74
2022/12/25 08:14:15;;;;;;;16.13;8.77;;;;;;;3.81;100.00;101401.19;4929642;29;20259;-73
2022/12/25 08:16:45;;;;;;;18.80;10.98;;;;;;;3.71;100.00;101395.88;4936020;29;20247;-73
2022/12/25 08:19:15;;;;;;;12.00;7.78;;;;;;;3.73;100.00;101396.53;4936198;29;20243;-73
2022/12/25 08:21:44;;;;;;;14.93;8.20;;;;;;;3.78;100.00;101396.97;4922480;29;20632;-73
2022/12/25 08:24:13;;;;;;;11.50;7.05;;;;;;;3.96;100.00;101405.09;4943026;29;20308;-73
2022/12/25 08:26:42;;;;;;;21.33;8.55;;;;;;;4.11;100.00;101418.84;4936259;29;20295;-73
2022/12/25 08:29:12;;;;;;;18.95;8.80;;;;;;;4.17;100.00;101411.03;4936257;29;20631;-73
2022/12/25 08:31:43;;;;;;;30.13;9.18;;;;;;;4.23;100.00;101401.56;4941240;29;20270;-72
2022/12/25 08:34:15;;;;;;;10.25;6.68;;;;;;;4.23;100.00;101401.56;4946345;29;20244;-73
2022/12/25 08:36:44;;;;;;;18.95;9.30;;;;;;;4.22;100.00;101400.72;4935041;29;20201;-73
2022/12/25 08:39:13;;;;;;;19.05;8.45;;;;;;;4.28;100.00;101404.63;4947141;29;20541;-74
2022/12/25 08:41:42;;;;;;;19.15;8.23;;;;;;;4.38;100.00;101395.56;4955203;29;20192;-74
2022/12/25 08:44:13;;;;;;;16.83;9.05;;;;;;;4.48;100.00;101390.13;4951321;29;20224;-73
2022/12/25 08:46:42;;;;;;;19.60;8.85;;;;;;;4.48;100.00;101384.78;4946449;29;20196;-73
2022/12/25 08:49:11;;;;;;;12.68;7.85;;;;;;;4.45;100.00;101381.56;4943227;29;20210;-73
2022/12/25 08:51:40;;;;;;;29.17;8.13;;;;;;;4.53;100.00;101377.13;4937560;29;20203;-74
2022/12/25 08:54:10;;;;;;;15.63;8.00;;;;;;;4.47;100.00;101374.22;4935493;29;20255;-73
2022/12/25 08:56:39;;;;;;;13.88;9.30;;;;;;;4.70;100.00;101372.75;4938091;29;20690;-73
2022/12/25 08:59:08;;;;;;;18.42;8.13;;;;;;;4.75;100.00;101360.59;4938624;29;20203;-73
2022/12/25 09:01:38;;;;;;;15.50;7.53;;;;;;;4.64;100.00;101352.81;4942604;29;20649;-74
2022/12/25 09:04:07;;;;;;;14.05;8.98;;;;;;;4.69;100.00;101355.88;4935842;29;20221;-74
2022/12/25 09:06:36;;;;;;;11.23;8.38;;;;;;;4.80;100.00;101350.25;4938385;29;20188;-73
2022/12/25 09:09:06;;;;;;;25.23;10.68;;;;;;;4.88;100.00;101354.88;4951632;29;20197;-74
2022/12/25 09:11:35;;;;;;;20.20;7.65;;;;;;;4.84;100.00;101349.97;4935587;29;20197;-75
2022/12/25 09:14:04;;;;;;;17.30;9.63;;;;;;;4.79;100.00;101339.69;4945635;28;20216;-73
2022/12/25 09:16:33;;;;;;;24.80;9.55;;;;;;;4.90;100.00;101341.28;4939867;29;20189;-74
2022/12/25 09:19:03;;;;;;;21.10;11.50;;;;;;;4.89;100.00;101339.63;4942696;29;20192;-73
2022/12/25 09:21:32;;;;;;;16.08;9.40;;;;;;;4.92;100.00;101334.78;4946320;29;20279;-74
2022/12/25 09:24:01;;;;;;;31.23;13.90;;;;;;;4.89;100.00;101339.63;4935535;29;20586;-73
2022/12/25 09:26:31;;;;;;;27.52;12.38;;;;;;;4.93;100.00;101341.84;4935746;29;20271;-73
2022/12/25 09:29:00;;;;;;;27.55;12.32;;;;;;;4.91;100.00;101338.44;4944910;29;20281;-74
2022/12/25 09:31:29;;;;;;;21.25;12.57;;;;;;;5.06;100.00;101334.22;4937592;29;20240;-74
2022/12/25 09:34:32;;;;;;;28.48;13.32;;;;;;;4.89;100.00;101344.97;4936548;29;20275;-73
2022/12/25 09:37:02;;;;;;;32.95;9.93;;;;;;;4.73;100.00;101340.31;4929688;29;20236;-71
2022/12/25 09:39:32;;;;;;;20.13;9.95;;;;;;;4.78;100.00;101344.22;4917910;29;20194;-71
2022/12/25 09:42:05;;;;;;;21.08;11.85;;;;;;;4.85;100.00;101341.75;4931769;29;20308;-71
2022/12/25 09:44:38;;;;;;;18.70;11.55;;;;;;;4.91;100.00;101337.59;4919121;29;20219;-71
2022/12/25 09:47:13;;;;;;;21.27;10.27;;;;;;;4.88;100.00;101337.94;4936479;29;20261;-71
2022/12/25 09:49:49;;;;;;;22.98;9.10;;;;;;;4.87;100.00;101325.50;4936004;29;20711;-70
2022/12/25 09:52:23;;;;;;;16.38;9.30;;;;;;;4.98;100.00;101327.97;4935831;29;20196;-72
2022/12/25 09:55:00;;;;;;;25.05;12.35;;;;;;;5.06;100.00;101338.75;4935847;29;20211;-70
2022/12/25 09:57:29;;;;;;;22.92;11.10;;;;;;;5.01;100.00;101341.03;4935595;29;20177;-71
2022/12/25 09:59:58;;;;;;;17.98;11.57;;;;;;;5.14;100.00;101345.00;4935637;29;20208;-70
2022/12/25 10:02:51;;;;;;;28.67;13.20;;;;;;;5.52;100.00;101353.66;4936046;29;20224;-70
2022/12/25 10:05:38;;;;;;;24.55;11.07;;;;;;;5.63;100.00;101353.38;4935820;29;20583;-71
2022/12/25 10:08:17;;;;;;;26.42;11.98;;;;;;;5.61;100.00;101344.66;4935795;29;20197;-71
2022/12/25 10:10:55;;;;;;;22.88;10.85;;;;;;;5.69;100.00;101356.28;4929511;29;20212;-71
2022/12/25 10:13:44;;;;;;;32.22;12.75;;;;;;;5.89;100.00;101353.41;4938755;29;20188;-70
2022/12/25 10:16:24;;;;;;;20.95;11.73;;;;;;;5.77;100.00;101343.88;4939083;29;20237;-70
2022/12/25 10:19:10;;;;;;;24.88;12.50;;;;;;;5.81;100.00;101354.16;4936139;29;20228;-71
2022/12/25 10:21:39;;;;;;;19.50;10.80;;;;;;;5.76;100.00;101361.03;4939402;29;20185;-71
2022/12/25 10:24:23;;;;;;;26.63;13.50;;;;;;;5.81;100.00;101356.84;4938681;29;20207;-70
2022/12/25 10:26:55;;;;;;;35.47;13.43;;;;;;;5.69;100.00;101345.53;4939082;29;20224;-71
2022/12/25 10:29:24;;;;;;;26.02;11.98;;;;;;;5.67;100.00;101339.47;4938584;29;20287;-71
2022/12/25 10:31:55;;;;;;;21.23;12.88;;;;;;;5.59;100.00;101328.72;4938729;29;20204;-70
2022/12/25 10:34:26;;;;;;;32.45;14.70;;;;;;;5.54;100.00;101322.97;4938389;29;20221;-70
2022/12/25 10:36:55;;;;;;;29.00;14.10;;;;;;;5.69;100.00;101328.59;4938400;29;20197;-71
2022/12/25 10:39:27;;;;;;;23.80;13.82;;;;;;;5.86;100.00;101334.88;4938910;29;20191;-72
2022/12/25 10:42:25;;;;;;;22.33;12.27;;;;;;;5.82;100.00;101317.41;4938959;29;20228;-70
2022/12/25 10:45:02;;;;;;;22.95;11.13;;;;;;;5.77;100.00;101317.88;4937026;29;20323;-72
2022/12/25 10:47:33;;;;;;;30.10;13.85;;;;;;;5.84;100.00;101310.03;4939018;29;20185;-70
2022/12/25 10:50:10;;;;;;;25.63;13.35;;;;;;;5.76;100.00;101302.75;4938404;29;20228;-71
2022/12/25 10:52:55;;;;;;;29.42;13.20;;;;;;;5.63;100.00;101313.09;4938137;29;20212;-71
2022/12/25 10:55:26;;;;;;;33.33;16.05;;;;;;;5.73;100.00;101299.56;4938312;29;20739;-70
2022/12/25 10:57:58;;;;;;;26.85;15.07;;;;;;;5.68;100.00;101295.53;4938478;29;20185;-72
2022/12/25 11:00:29;;;;;;;24.40;15.07;;;;;;;5.65;100.00;101285.13;4938672;29;20209;-71
2022/12/25 11:02:58;;;;;;;25.88;14.50;;;;;;;5.51;100.00;101293.78;4921964;29;20709;-72
2022/12/25 11:05:30;;;;;;;24.88;15.50;;;;;;;5.52;100.00;101290.06;4942295;29;20248;-72
2022/12/25 11:08:01;;;;;;;21.67;12.30;;;;;;;5.39;100.00;101288.81;4943416;29;20197;-72
2022/12/25 11:10:36;;;;;;;29.23;13.63;;;;;;;5.35;100.00;101299.03;4946393;29;20609;-72
2022/12/25 11:13:08;;;;;;;19.05;12.43;;;;;;;5.44;100.00;101298.09;4944924;29;20239;-71
2022/12/25 11:15:40;;;;;;;21.98;12.57;;;;;;;5.47;100.00;101303.13;4940480;29;20223;-71
2022/12/25 11:18:19;;;;;;;20.52;11.90;;;;;;;5.56;100.00;101315.63;4938887;29;20674;-70
2022/12/25 11:20:54;;;;;;;21.20;12.10;;;;;;;5.48;100.00;101310.19;4939306;29;20580;-71
2022/12/25 11:23:31;;;;;;;25.13;12.57;;;;;;;5.56;100.00;101307.56;4938933;29;20172;-72
2022/12/25 11:26:04;;;;;;;24.92;12.85;;;;;;;5.44;100.00;101306.13;4939981;29;20563;-71
2022/12/25 11:28:35;;;;;;;20.30;12.10;;;;;;;5.48;100.00;101307.50;4938955;29;20289;-71
2022/12/25 11:31:09;;;;;;;21.45;11.98;;;;;;;5.39;100.00;101307.59;4938655;29;20188;-71
2022/12/25 11:33:42;;;;;;;20.63;10.80;;;;;;;5.47;100.00;101313.03;4937970;29;20657;-70
2022/12/25 11:36:21;;;;;;;17.98;11.50;;;;;;;5.52;100.00;101316.91;4938853;29;20225;-71
2022/12/25 11:38:51;;;;;;;24.70;11.30;;;;;;;5.66;100.00;101313.63;4938710;29;20189;-71
2022/12/25 11:41:27;;;;;;;18.73;10.25;;;;;;;5.58;100.00;101283.22;4937408;29;20292;-70
2022/12/25 11:43:59;;;;;;;27.35;12.93;;;;;;;5.62;100.00;101271.16;4937769;29;20232;-70
2022/12/25 11:46:36;;;;;;;18.48;11.10;;;;;;;5.72;100.00;101269.19;4937584;29;20185;-71
2022/12/25 11:49:10;;;;;;;32.38;16.70;;;;;;;5.79;100.00;101261.34;4937792;29;20176;-71
2022/12/25 11:51:43;;;;;;;25.58;10.77;;;;;;;5.82;100.00;101243.03;4937383;29;20195;-71
2022/12/25 11:54:22;;;;;;;20.75;11.07;;;;;;;5.81;100.00;101227.09;4927344;29;20276;-70
2022/12/25 11:56:55;;;;;;;19.33;11.77;;;;;;;5.78;100.00;101208.63;4938107;29;20192;-72
2022/12/25 11:59:30;;;;;;;20.75;10.95;;;;;;;5.75;100.00;101196.38;4920120;29;20189;-72
2022/12/25 12:02:09;;;;;;;17.10;11.20;;;;;;;5.74;100.00;101185.78;4937029;29;20674;-70
2022/12/25 12:04:44;;;;;;;25.42;14.15;;;;;;;5.59;100.00;101183.72;4937096;29;20731;-72
2022/12/25 12:07:22;;;;;;;38.05;14.45;;;;;;;5.69;100.00;101175.53;4937501;29;20196;-71
2022/12/25 12:10:01;;;;;;;18.13;11.02;;;;;;;5.74;100.00;101183.09;4937747;29;20206;-72
2022/12/25 12:12:39;;;;;;;25.58;14.80;;;;;;;5.81;100.00;101187.63;4938049;29;20244;-72
2022/12/25 12:15:27;;;;;;;23.65;12.43;;;;;;;5.83;100.00;101191.00;4938764;29;20217;-70
2022/12/25 12:18:07;;;;;;;18.42;11.88;;;;;;;5.84;100.00;101213.34;4939991;29;20548;-72
2022/12/25 12:20:37;;;;;;;17.83;12.07;;;;;;;5.83;100.00;101209.81;4941135;29;20212;-71
2022/12/25 12:23:16;;;;;;;22.33;11.77;;;;;;;5.80;100.00;101214.69;4941048;29;20252;-71
2022/12/25 12:25:45;;;;;;;22.13;11.98;;;;;;;5.82;100.00;101226.09;4939129;29;20299;-71
2022/12/25 12:28:24;;;;;;;20.92;10.20;;;;;;;5.95;100.00;101210.38;4938867;29;20232;-71
2022/12/25 12:31:02;;;;;;;17.20;9.93;;;;;;;5.93;100.00;101202.47;4938594;29;20220;-71
2022/12/25 12:33:36;;;;;;;20.05;10.73;;;;;;;5.97;100.00;101208.38;4938681;29;20209;-72
2022/12/25 12:36:11;;;;;;;28.17;15.48;;;;;;;5.98;100.00;101204.69;4937163;29;20319;-72
2022/12/25 12:38:42;;;;;;;19.73;11.80;;;;;;;5.95;100.00;101196.97;4923564;29;20287;-72
2022/12/25 12:41:14;;;;;;;23.00;12.30;;;;;;;5.86;100.00;101190.66;4940537;29;20253;-72
2022/12/25 12:43:48;;;;;;;15.57;10.15;;;;;;;5.91;100.00;101198.28;4939306;29;20551;-72
2022/12/25 12:46:20;;;;;;;15.90;9.95;;;;;;;5.86;100.00;101185.28;4939712;29;20224;-73
2022/12/25 12:49:10;;;;;;;19.60;9.55;;;;;;;5.82;100.00;101192.00;4944310;29;20205;-71
2022/12/25 12:51:39;;;;;;;13.95;8.77;;;;;;;5.74;100.00;101181.25;4946185;29;20186;-73
2022/12/25 12:54:20;;;;;;;14.55;8.27;;;;;;;5.87;100.00;101183.50;4943236;29;20207;-72
2022/12/25 12:57:00;;;;;;;15.05;8.13;;;;;;;5.78;100.00;101181.75;4942386;29;20181;-72
2022/12/25 12:59:38;;;;;;;18.98;10.25;;;;;;;5.86;100.00;101179.09;4944424;29;20192;-72
2022/12/25 13:02:40;;;;;;;15.73;10.55;;;;;;;5.85;100.00;101174.75;4942780;29;20246;-71
2022/12/25 13:05:18;;;;;;;13.55;10.43;;;;;;;5.91;100.00;101188.38;4950651;29;20228;-72
2022/12/25 13:08:00;;;;;;;11.88;9.07;;;;;;;5.94;100.00;101187.22;4951547;29;20208;-73
2022/12/25 13:10:33;;;;;;;12.25;8.43;;;;;;;5.96;100.00;101179.81;4946065;29;20193;-73
2022/12/25 13:13:12;;;;;;;14.68;10.40;;;;;;;6.06;100.00;101191.25;4943364;29;20236;-72
2022/12/25 13:15:48;;;;;;;12.05;10.00;;;;;;;6.02;100.00;101171.09;4945699;29;20276;-71
2022/12/25 13:18:18;;;;;;;15.27;10.40;;;;;;;6.07;100.00;101171.44;4941465;29;20231;-71
2022/12/25 13:20:55;;;;;;;23.00;11.13;;;;;;;6.06;100.00;101175.13;4941975;29;20256;-71